Currently 62°F in Fallbrook, California, USA
62°F
62°F / 62°F
calm
0.00"
Sunday, June 16, 2019 7:57 AM PDT

Fallbrook, California Weather Summary
Last 36 Hours

Temperature Winds Hourly Humidity Dewpoint
Time Report Norm Report Norm Max Gusts Precip. Rpt. Norm Rpt. Norm Pressure
1Sun 07:57 AM  62.2°F  62°F  calm  calm  none  0.00"  100%  94%  62°F  60°F  29.90"
2Sun 07:54 AM  62.2°F  62°F  calm  calm  none  ----  100%  94%  62°F  60°F  29.90"
Sun 07:00 AM  61.8°F  60°F  calm  calm  none  0.00"  100%  96%  62°F  59°F  29.88"
Sun 06:00 AM  62.0°F  59°F  calm  calm  none  0.00"  100%  97%  62°F  58°F  29.88"
Sun 05:00 AM  61.8°F  59°F  calm  calm  none  0.00"  100%  97%  62°F  59°F  29.88"
Sun 04:00 AM  61.8°F  60°F  calm  calm  none  0.00"  100%  97%  62°F  59°F  29.87"
Sun 03:00 AM  61.7°F  60°F  calm  calm  none  0.00"  100%  97%  62°F  59°F  29.88"
Sun 02:00 AM  61.6°F  60°F  calm  calm  none  0.00"  100%  97%  61°F  59°F  29.89"
3Sun 01:29 AM  61.5°F  60°F  calm  calm  none  ----  100%  97%  61°F  59°F  29.90"
Sun 01:00 AM  61.6°F  60°F  calm  calm  none  0.00"  100%  97%  61°F  59°F  29.91"
Sun 12:00 AM  62.0°F  61°F  calm  calm  none  0.00"  98%  97%  61°F  60°F  29.92"
Sat 11:00 PM  62.4°F  61°F  calm  calm  none  0.00"  97%  97%  62°F  60°F  29.93"
Sat 10:00 PM  62.5°F  61°F  calm  calm  none  0.00"  97%  96%  61°F  60°F  29.94"
Sat 09:00 PM  62.8°F  62°F  calm  calm  5 mph  0.00"  94%  93%  61°F  60°F  29.92"
Sat 08:00 PM  63.7°F  65°F  calm  1 mph  8 mph  0.00"  89%  87%  60°F  61°F  29.91"
Sat 07:00 PM  66.9°F  68°F  5 mph SW  3 mph  8 mph  0.00"  81%  77%  60°F  61°F  29.91"
Sat 06:00 PM  70.7°F  72°F  2 mph S  4 mph  10 mph  0.00"  72%  69%  61°F  61°F  29.89"
Sat 05:00 PM  72.1°F  74°F  3 mph SW  5 mph  9 mph  0.00"  69%  63%  61°F  60°F  29.90"
Sat 04:00 PM  73.4°F  76°F  4 mph S  5 mph  10 mph  0.00"  68%  59%  62°F  60°F  29.90"
Sat 03:00 PM  75.9°F  77°F  6 mph SW  6 mph  11 mph  0.00"  62%  57%  62°F  61°F  29.91"
Sat 02:00 PM  77.9°F  78°F  4 mph SW  5 mph  9 mph  0.00"  58%  57%  61°F  61°F  29.91"
Sat 01:00 PM  77.0°F  77°F  3 mph SW  4 mph  8 mph  0.00"  60%  58%  61°F  61°F  29.91"
Sat 12:00 PM  73.4°F  76°F  1 mph S  4 mph  6 mph  0.00"  63%  62%  60°F  62°F  29.94"
Sat 11:00 AM  68.6°F  73°F  1 mph N  3 mph  5 mph  0.00"  73%  69%  59°F  62°F  29.95"
Sat 10:00 AM  64.8°F  69°F  calm  2 mph  5 mph  0.00"  82%  80%  59°F  62°F  29.96"
Sat 09:00 AM  62.3°F  64°F  calm  1 mph  4 mph  0.00"  88%  89%  58°F  61°F  29.98"
Sat 08:00 AM  61.3°F  62°F  calm  calm  none  0.00"  92%  94%  59°F  60°F  29.97"
Sat 07:00 AM  60.8°F  60°F  calm  calm  none  0.00"  94%  97%  59°F  59°F  29.96"
Sat 06:00 AM  60.4°F  59°F  calm  calm  none  0.00"  94%  97%  59°F  58°F  29.95"
Sat 05:00 AM  60.3°F  59°F  calm  calm  3 mph  0.00"  94%  97%  59°F  58°F  29.94"
Sat 04:00 AM  60.3°F  60°F  calm  calm  none  0.00"  94%  97%  58°F  59°F  29.93"
Sat 03:00 AM  60.5°F  60°F  calm  calm  1 mph  0.00"  93%  97%  58°F  59°F  29.93"
Sat 02:00 AM  60.4°F  60°F  calm  calm  none  0.00"  94%  97%  58°F  59°F  29.94"
Sat 01:00 AM  60.2°F  60°F  calm  calm  none  0.00"  94%  97%  58°F  59°F  29.94"
Sat 12:00 AM  59.9°F  60°F  calm  calm  none  0.00"  95%  97%  58°F  60°F  29.94"
Fri 11:00 PM  59.7°F  61°F  calm  calm  none  0.00"  95%  97%  58°F  60°F  29.95"
Fri 10:00 PM  59.1°F  61°F  calm  calm  none  0.00"  95%  96%  58°F  60°F  29.95"
Fri 09:00 PM  60.1°F  62°F  calm  calm  5 mph  0.00"  90%  94%  57°F  60°F  29.94"
Fri 08:00 PM  62.5°F  64°F  1 mph SW  1 mph  8 mph  0.00"  84%  88%  57°F  60°F  29.93"

  1. Current weather data. No green row appears if the current weather data is also the high or low for the current day.
  2. High temperature for the current day.
  3. Low temperature for the current day.

The Fallbrook weather pages are a service of WeatherCurrents. Fallbrook, California is located in northern San Diego County, close to I15 and Camp Pendleton, and is home to ranches, avocado and citrus groves, and plant nurseries.
Copyright ©2019  WeatherCurrents. All rights reserved. - Submit questions and comments - Privacy Policy

This page automatically refreshes every 10 minutes.